createdAt,value
2023-01-31T00:01:57.524Z,99352.40
2023-01-31T00:04:25.460Z,99354.60
2023-01-31T00:06:54.085Z,99357.00
2023-01-31T00:09:22.319Z,99352.60
2023-01-31T00:11:50.305Z,99354.40
2023-01-31T00:14:20.713Z,99352.80
2023-01-31T00:16:48.724Z,99357.60
2023-01-31T00:19:16.946Z,99363.80
2023-01-31T00:21:47.773Z,99362.20
2023-01-31T00:24:16.193Z,99361.80
2023-01-31T00:26:44.188Z,99367.80
2023-01-31T00:29:12.321Z,99375.80
2023-01-31T00:31:40.690Z,99372.60
2023-01-31T00:34:08.865Z,99378.60
2023-01-31T00:36:37.980Z,99379.00
2023-01-31T00:39:08.478Z,99384.80
2023-01-31T00:41:39.337Z,99380.60
2023-01-31T00:44:07.973Z,99382.60
2023-01-31T00:46:36.716Z,99382.00
2023-01-31T00:49:05.017Z,99385.00
2023-01-31T00:51:33.159Z,99392.40
2023-01-31T00:54:01.021Z,99399.60
2023-01-31T00:56:29.487Z,99406.00
2023-01-31T00:58:57.477Z,99403.80
2023-01-31T01:01:28.986Z,99405.20
2023-01-31T01:03:58.366Z,99404.80
2023-01-31T01:06:26.963Z,99402.20
2023-01-31T01:08:57.865Z,99409.60
2023-01-31T01:11:32.608Z,99416.80
2023-01-31T01:14:01.852Z,99422.60
2023-01-31T01:16:39.277Z,99423.80
2023-01-31T01:19:13.065Z,99424.40
2023-01-31T01:21:41.274Z,99426.80
2023-01-31T01:24:15.963Z,99426.40
2023-01-31T01:26:46.040Z,99431.00
2023-01-31T01:29:14.705Z,99434.20
2023-01-31T01:31:42.735Z,99430.00
2023-01-31T01:34:16.828Z,99443.40
2023-01-31T01:36:47.631Z,99450.20
2023-01-31T01:39:16.737Z,99458.00
2023-01-31T01:41:46.117Z,99463.60
2023-01-31T01:44:52.544Z,99468.80
2023-01-31T01:47:50.938Z,99477.60
2023-01-31T01:50:33.826Z,99481.00
2023-01-31T01:53:27.637Z,99479.60
2023-01-31T01:56:01.595Z,99483.60
2023-01-31T01:58:39.829Z,99482.00
2023-01-31T02:01:10.195Z,99486.20
2023-01-31T02:03:39.629Z,99483.40
2023-01-31T02:06:07.835Z,99488.40
2023-01-31T02:08:41.065Z,99490.60
2023-01-31T02:11:31.289Z,99492.40
2023-01-31T02:14:08.695Z,99495.20
2023-01-31T02:16:37.368Z,99497.60
2023-01-31T02:19:20.116Z,99508.80
2023-01-31T02:22:22.698Z,99515.20
2023-01-31T02:25:24.405Z,99513.20
2023-01-31T02:28:42.989Z,99527.80
2023-01-31T02:31:59.047Z,99526.40
2023-01-31T02:34:55.949Z,99531.00
2023-01-31T02:37:45.528Z,99545.40
2023-01-31T02:40:24.297Z,99548.40
2023-01-31T02:43:21.547Z,99550.40
2023-01-31T02:46:16.333Z,99558.20
2023-01-31T02:48:53.250Z,99558.20
2023-01-31T02:51:31.409Z,99560.40
2023-01-31T02:54:45.140Z,99554.60
2023-01-31T02:57:13.337Z,99566.40
2023-01-31T02:59:41.695Z,99569.80
2023-01-31T03:02:10.029Z,99573.60
2023-01-31T03:04:39.175Z,99580.60
2023-01-31T03:07:39.629Z,99587.00
2023-01-31T03:10:54.230Z,99603.00
2023-01-31T03:14:10.700Z,99605.80
2023-01-31T03:17:20.254Z,99615.60
2023-01-31T03:20:29.839Z,99622.40
2023-01-31T03:23:32.651Z,99630.80
2023-01-31T03:26:05.185Z,99634.40
2023-01-31T03:28:41.804Z,99627.80
2023-01-31T03:31:27.744Z,99631.60
2023-01-31T03:34:02.218Z,99635.20
2023-01-31T03:37:04.771Z,99634.60
2023-01-31T03:40:05.982Z,99633.20
2023-01-31T03:43:14.725Z,99640.60
2023-01-31T03:45:55.373Z,99645.80
2023-01-31T03:48:31.128Z,99650.60
2023-01-31T03:51:06.995Z,99655.20
2023-01-31T03:53:54.004Z,99653.80
2023-01-31T03:56:31.530Z,99657.20
2023-01-31T03:59:09.690Z,99657.00
2023-01-31T04:01:46.212Z,99657.40
2023-01-31T04:04:42.899Z,99668.20
2023-01-31T04:07:12.122Z,99658.60
2023-01-31T04:09:40.353Z,99658.00
2023-01-31T04:12:14.885Z,99659.40
2023-01-31T04:14:43.820Z,99660.80
2023-01-31T04:17:12.021Z,99669.20
2023-01-31T04:19:39.963Z,99672.00
2023-01-31T04:22:07.924Z,99678.40
2023-01-31T04:24:36.807Z,99671.00
2023-01-31T04:27:04.734Z,99676.20
2023-01-31T04:29:33.152Z,99675.00
2023-01-31T04:32:01.250Z,99676.80
2023-01-31T04:34:29.140Z,99681.20
2023-01-31T04:36:57.021Z,99678.40
2023-01-31T04:39:24.988Z,99679.20
2023-01-31T04:41:53.100Z,99681.20
2023-01-31T04:44:21.097Z,99683.20
2023-01-31T04:46:49.019Z,99691.80
2023-01-31T04:49:17.007Z,99699.60
2023-01-31T04:51:44.913Z,99696.20
2023-01-31T04:54:12.995Z,99698.80
2023-01-31T04:56:40.849Z,99702.60
2023-01-31T04:59:08.865Z,99707.40
2023-01-31T05:01:36.715Z,99712.00
2023-01-31T05:04:04.885Z,99710.20
2023-01-31T05:06:32.975Z,99704.60
2023-01-31T05:09:01.732Z,99708.80
2023-01-31T05:11:29.774Z,99719.40
2023-01-31T05:13:57.617Z,99716.00
2023-01-31T05:16:25.520Z,99725.20
2023-01-31T05:18:53.604Z,99719.20
2023-01-31T05:21:21.785Z,99720.20
2023-01-31T05:23:49.700Z,99713.80
2023-01-31T05:26:17.747Z,99719.80
2023-01-31T05:28:45.807Z,99724.80
2023-01-31T05:31:13.920Z,99733.80
2023-01-31T05:33:42.324Z,99735.20
2023-01-31T05:36:10.267Z,99742.00
2023-01-31T05:38:38.154Z,99751.00
2023-01-31T05:41:06.541Z,99752.00
2023-01-31T05:43:36.382Z,99755.80
2023-01-31T05:46:05.115Z,99769.80
2023-01-31T05:48:33.540Z,99776.00
2023-01-31T05:51:02.058Z,99783.80
2023-01-31T05:53:30.308Z,99783.60
2023-01-31T05:55:58.575Z,99788.00
2023-01-31T05:58:26.391Z,99789.60
2023-01-31T06:00:57.330Z,99797.80
2023-01-31T06:03:25.363Z,99807.60
2023-01-31T06:05:53.880Z,99806.40
2023-01-31T06:08:22.040Z,99822.60
2023-01-31T06:10:49.976Z,99833.60
2023-01-31T06:13:17.845Z,99835.60
2023-01-31T06:15:45.764Z,99839.00
2023-01-31T06:18:14.731Z,99836.60
2023-01-31T06:20:42.698Z,99846.80
2023-01-31T06:23:10.561Z,99854.00
2023-01-31T06:25:38.457Z,99853.80
2023-01-31T06:28:06.481Z,99857.40
2023-01-31T06:30:34.955Z,99867.60
2023-01-31T06:33:03.309Z,99878.20
2023-01-31T06:35:31.708Z,99878.80
2023-01-31T06:37:59.753Z,99887.60
2023-01-31T06:40:27.680Z,99896.60
2023-01-31T06:42:55.538Z,99896.60
2023-01-31T06:45:23.523Z,99894.80
2023-01-31T06:47:52.149Z,99898.00
2023-01-31T06:50:20.150Z,99906.40
2023-01-31T06:52:48.073Z,99914.60
2023-01-31T06:55:16.335Z,99913.60
2023-01-31T06:57:50.866Z,99917.80
2023-01-31T07:00:19.319Z,99917.20
2023-01-31T07:02:48.388Z,99906.40
2023-01-31T07:05:17.036Z,99913.40
2023-01-31T07:07:45.497Z,99911.20
2023-01-31T07:10:14.158Z,99921.40
2023-01-31T07:12:42.630Z,99921.40
2023-01-31T07:15:11.481Z,99920.40
2023-01-31T07:17:39.446Z,99923.00
2023-01-31T07:20:08.545Z,99922.60
2023-01-31T07:22:36.580Z,99923.60
2023-01-31T07:25:05.309Z,99930.20
2023-01-31T07:27:33.220Z,99931.00
2023-01-31T07:30:01.110Z,99926.20
2023-01-31T07:32:31.186Z,99927.40
2023-01-31T07:34:59.033Z,99924.40
2023-01-31T07:37:27.219Z,99925.00
2023-01-31T07:39:55.083Z,99928.40
2023-01-31T07:42:22.967Z,99930.20
2023-01-31T07:44:51.155Z,99934.00
2023-01-31T07:47:19.164Z,99932.00
2023-01-31T07:49:48.545Z,99932.80
2023-01-31T07:52:16.811Z,99932.40
2023-01-31T07:54:44.723Z,99932.20
2023-01-31T07:57:13.548Z,99941.60
2023-01-31T07:59:41.476Z,99934.40
2023-01-31T08:02:32.973Z,99939.40
2023-01-31T08:05:01.993Z,99940.60
2023-01-31T08:07:30.681Z,99944.40
2023-01-31T08:09:58.859Z,99942.00
2023-01-31T08:12:26.716Z,99950.00
2023-01-31T08:14:54.712Z,99952.20
2023-01-31T08:17:22.824Z,99959.80
2023-01-31T08:19:50.789Z,99958.60
2023-01-31T08:22:20.482Z,99953.80
2023-01-31T08:24:48.509Z,99966.80
2023-01-31T08:27:16.423Z,99954.40
2023-01-31T08:29:44.339Z,99966.60
2023-01-31T08:32:12.615Z,99966.20
2023-01-31T08:34:40.603Z,99965.80
2023-01-31T08:37:08.630Z,99972.40
2023-01-31T08:39:36.506Z,99969.00
2023-01-31T08:42:04.553Z,99969.20
2023-01-31T08:44:32.812Z,99966.60
2023-01-31T08:47:02.409Z,99966.00
2023-01-31T08:49:30.399Z,99968.80
2023-01-31T08:52:00.828Z,99972.00
2023-01-31T08:54:29.015Z,99971.80
2023-01-31T08:56:57.109Z,99984.20
2023-01-31T08:59:24.948Z,99977.20
2023-01-31T09:01:52.906Z,99979.20
2023-01-31T09:04:20.914Z,99974.80
2023-01-31T09:06:49.808Z,99975.20
2023-01-31T09:09:17.985Z,99981.20
2023-01-31T09:11:45.936Z,99983.00
2023-01-31T09:14:13.877Z,99981.80
2023-01-31T09:16:43.549Z,99987.20
2023-01-31T09:19:11.656Z,99986.60
2023-01-31T09:21:39.567Z,100000.40
2023-01-31T09:24:07.821Z,100000.00
2023-01-31T09:26:35.703Z,100007.20
2023-01-31T09:29:03.704Z,100008.80
2023-01-31T09:31:32.246Z,100015.40
2023-01-31T09:34:01.086Z,100013.80
2023-01-31T09:36:30.180Z,100019.20
2023-01-31T09:39:00.628Z,100016.60
2023-01-31T09:41:46.051Z,100010.80
2023-01-31T09:44:26.191Z,100017.80
2023-01-31T09:47:19.897Z,100006.00
2023-01-31T09:49:58.646Z,100001.40
2023-01-31T09:52:28.563Z,100013.60
2023-01-31T09:55:00.313Z,100007.60
2023-01-31T09:57:48.060Z,100007.00
2023-01-31T10:00:31.697Z,100003.20
2023-01-31T10:03:18.659Z,99998.60
2023-01-31T10:05:56.476Z,100003.80
2023-01-31T10:08:44.249Z,100005.00
2023-01-31T10:11:23.313Z,100004.20
2023-01-31T10:14:04.919Z,100009.40
2023-01-31T10:16:46.200Z,100005.20
2023-01-31T10:19:29.278Z,100001.00
2023-01-31T10:22:11.934Z,100008.60
2023-01-31T10:24:59.505Z,100014.20
2023-01-31T10:27:51.339Z,100013.80
2023-01-31T10:30:27.119Z,100012.40
2023-01-31T10:33:18.387Z,100014.20
2023-01-31T10:35:51.201Z,100017.60
2023-01-31T10:38:28.927Z,100014.80
2023-01-31T10:41:14.948Z,100014.20
2023-01-31T10:44:26.121Z,100009.60
2023-01-31T10:47:00.425Z,99997.80
2023-01-31T10:49:29.532Z,99994.20
2023-01-31T10:52:15.921Z,99997.60
2023-01-31T10:55:07.939Z,99994.00
2023-01-31T10:57:36.421Z,99986.80
2023-01-31T11:00:05.935Z,99977.20
2023-01-31T11:02:34.613Z,99980.80
2023-01-31T11:05:02.919Z,99976.60
2023-01-31T11:07:32.273Z,99975.40
2023-01-31T11:10:00.172Z,99973.80
2023-01-31T11:13:04.598Z,99972.40
2023-01-31T11:15:39.973Z,99978.20
2023-01-31T11:18:31.899Z,99974.60
2023-01-31T11:21:02.754Z,99973.60
2023-01-31T11:23:35.602Z,99978.20
2023-01-31T11:26:04.274Z,99967.20
2023-01-31T11:28:40.447Z,99971.00
2023-01-31T11:31:40.532Z,99975.60
2023-01-31T11:34:31.003Z,99974.40
2023-01-31T11:37:34.169Z,99975.20
2023-01-31T11:40:37.355Z,99962.20
2023-01-31T11:43:24.896Z,99962.60
2023-01-31T11:46:03.781Z,99965.20
2023-01-31T11:48:44.200Z,99960.00
2023-01-31T11:51:31.910Z,99954.00
2023-01-31T11:54:00.016Z,99945.80
2023-01-31T11:56:34.517Z,99938.80
2023-01-31T11:59:08.523Z,99939.60
2023-01-31T12:01:56.927Z,99939.80
2023-01-31T12:04:33.079Z,99930.00
2023-01-31T12:07:31.933Z,99925.80
2023-01-31T12:09:59.858Z,99924.80
2023-01-31T12:12:35.657Z,99921.60
2023-01-31T12:15:16.793Z,99919.80
2023-01-31T12:17:49.814Z,99919.60
2023-01-31T12:21:10.718Z,99925.40
2023-01-31T12:24:04.885Z,99910.20
2023-01-31T12:26:47.880Z,99901.80
2023-01-31T12:29:54.282Z,99910.80
2023-01-31T12:33:03.583Z,99903.00
2023-01-31T12:36:05.015Z,99909.00
2023-01-31T12:39:13.378Z,99901.20
2023-01-31T12:42:09.704Z,99901.00
2023-01-31T12:44:49.778Z,99903.60
2023-01-31T12:47:48.475Z,99899.40
2023-01-31T12:50:31.797Z,99895.00
2023-01-31T12:53:18.791Z,99890.40
2023-01-31T12:56:14.334Z,99881.80
2023-01-31T12:59:15.846Z,99877.80
2023-01-31T13:02:13.988Z,99873.60
2023-01-31T13:05:02.153Z,99865.60
2023-01-31T13:07:39.108Z,99862.60
2023-01-31T13:10:44.067Z,99857.40
2023-01-31T13:13:25.543Z,99855.00
2023-01-31T13:16:10.687Z,99853.60
2023-01-31T13:18:40.786Z,99846.20
2023-01-31T13:21:15.298Z,99840.40
2023-01-31T13:23:54.083Z,99840.00
2023-01-31T13:26:33.111Z,99832.00
2023-01-31T13:29:22.021Z,99835.60
2023-01-31T13:32:06.827Z,99831.60
2023-01-31T13:34:51.666Z,99834.20
2023-01-31T13:37:23.423Z,99838.00
2023-01-31T13:40:21.029Z,99840.80
2023-01-31T13:42:51.027Z,99847.20
2023-01-31T13:46:07.525Z,99849.20
2023-01-31T13:48:53.073Z,99843.20
2023-01-31T13:51:37.064Z,99848.20
2023-01-31T13:54:29.128Z,99849.20
2023-01-31T13:57:00.487Z,99841.00
2023-01-31T13:59:37.907Z,99849.60
2023-01-31T14:02:19.867Z,99836.20
2023-01-31T14:04:48.053Z,99832.00
2023-01-31T14:07:21.533Z,99831.40
2023-01-31T14:09:52.493Z,99826.40
2023-01-31T14:12:20.356Z,99829.40
2023-01-31T14:14:56.961Z,99836.80
2023-01-31T14:17:28.220Z,99828.20
2023-01-31T14:20:14.939Z,99828.60
2023-01-31T14:22:42.926Z,99828.80
2023-01-31T14:25:14.805Z,99835.60
2023-01-31T14:27:51.950Z,99837.00
2023-01-31T14:30:43.403Z,99823.60
2023-01-31T14:33:11.649Z,99825.60
2023-01-31T14:36:01.498Z,99817.60
2023-01-31T14:39:50.109Z,99809.20
2023-01-31T14:42:42.644Z,99814.40
2023-01-31T14:45:32.593Z,99816.00
2023-01-31T14:48:41.841Z,99804.00
2023-01-31T14:51:38.172Z,99805.40
2023-01-31T14:54:47.685Z,99802.20
2023-01-31T14:57:27.142Z,99791.00
2023-01-31T15:00:06.535Z,99783.20
2023-01-31T15:02:54.647Z,99786.60
2023-01-31T15:05:42.594Z,99785.00
2023-01-31T15:08:14.380Z,99781.20
2023-01-31T15:11:02.709Z,99778.60
2023-01-31T15:13:48.642Z,99778.80
2023-01-31T15:16:31.971Z,99776.40
2023-01-31T15:19:08.529Z,99777.60
2023-01-31T15:21:52.093Z,99781.00
2023-01-31T15:24:27.326Z,99775.20
2023-01-31T15:26:57.505Z,99772.00
2023-01-31T15:29:45.191Z,99769.00
2023-01-31T15:32:23.919Z,99762.20
2023-01-31T15:35:05.607Z,99756.80
2023-01-31T15:37:37.009Z,99759.40
2023-01-31T15:40:21.443Z,99749.80
2023-01-31T15:42:50.041Z,99755.60
2023-01-31T15:45:30.125Z,99753.20
2023-01-31T15:48:16.839Z,99751.20
2023-01-31T15:50:54.531Z,99746.00
2023-01-31T15:53:31.390Z,99744.00
2023-01-31T15:56:03.526Z,99734.80
2023-01-31T15:58:34.522Z,99738.20
2023-01-31T16:01:04.278Z,99733.80
2023-01-31T16:03:42.212Z,99734.00
2023-01-31T16:06:34.863Z,99725.40
2023-01-31T16:09:06.912Z,99717.60
2023-01-31T16:11:36.865Z,99714.60
2023-01-31T16:14:08.021Z,99709.60
2023-01-31T16:16:37.183Z,99705.60
2023-01-31T16:19:06.673Z,99701.60
2023-01-31T16:21:54.522Z,99696.40
2023-01-31T16:24:24.701Z,99686.60
2023-01-31T16:27:00.094Z,99672.20
2023-01-31T16:29:51.599Z,99657.80
2023-01-31T16:32:27.901Z,99648.60
2023-01-31T16:35:08.172Z,99645.20
2023-01-31T16:37:41.624Z,99645.40
2023-01-31T16:40:36.957Z,99642.00
2023-01-31T16:43:30.541Z,99637.80
2023-01-31T16:46:36.694Z,99647.60
2023-01-31T16:49:26.355Z,99639.80
2023-01-31T16:52:03.028Z,99630.00
2023-01-31T16:54:44.660Z,99623.80
2023-01-31T16:57:39.207Z,99612.40
2023-01-31T17:00:27.475Z,99616.60
2023-01-31T17:02:59.245Z,99611.60
2023-01-31T17:05:42.936Z,99595.60
2023-01-31T17:08:20.501Z,99596.40
2023-01-31T17:10:49.379Z,99586.60
2023-01-31T17:13:23.461Z,99585.00
2023-01-31T17:15:51.549Z,99578.00
2023-01-31T17:18:19.474Z,99563.60
2023-01-31T17:20:51.032Z,99561.60
2023-01-31T17:23:19.261Z,99559.20
2023-01-31T17:25:48.366Z,99550.20
2023-01-31T17:28:16.331Z,99537.00
2023-01-31T17:30:46.464Z,99536.80
2023-01-31T17:33:16.100Z,99528.20
2023-01-31T17:35:50.320Z,99522.60
2023-01-31T17:38:19.120Z,99518.80
2023-01-31T17:40:49.583Z,99514.20
2023-01-31T17:43:22.493Z,99492.80
2023-01-31T17:45:50.573Z,99479.00
2023-01-31T17:48:26.228Z,99470.40
2023-01-31T17:50:55.151Z,99471.60
2023-01-31T17:53:23.203Z,99464.80
2023-01-31T17:55:51.387Z,99459.40
2023-01-31T17:58:19.374Z,99457.00
2023-01-31T18:00:47.842Z,99443.60
2023-01-31T18:03:25.508Z,99438.80
2023-01-31T18:05:53.796Z,99434.20
2023-01-31T18:08:23.876Z,99431.40
2023-01-31T18:10:52.307Z,99430.20
2023-01-31T18:13:20.404Z,99417.00
2023-01-31T18:15:48.357Z,99411.40
2023-01-31T18:18:16.517Z,99405.60
2023-01-31T18:20:48.562Z,99395.40
2023-01-31T18:23:16.670Z,99386.80
2023-01-31T18:25:45.244Z,99387.60
2023-01-31T18:28:13.083Z,99379.00
2023-01-31T18:30:42.259Z,99373.00
2023-01-31T18:33:10.170Z,99364.80
2023-01-31T18:35:38.688Z,99357.20
2023-01-31T18:38:06.880Z,99347.80
2023-01-31T18:40:34.801Z,99342.40
2023-01-31T18:43:02.950Z,99333.80
2023-01-31T18:45:30.795Z,99326.60
2023-01-31T18:47:58.693Z,99316.40
2023-01-31T18:50:26.615Z,99306.00
2023-01-31T18:52:54.599Z,99308.40
2023-01-31T18:55:22.717Z,99291.40
2023-01-31T18:57:50.879Z,99284.20
2023-01-31T19:00:20.548Z,99279.40
2023-01-31T19:02:51.728Z,99276.60
2023-01-31T19:05:21.655Z,99264.00
2023-01-31T19:07:50.191Z,99266.80
2023-01-31T19:10:18.301Z,99257.00
2023-01-31T19:12:47.894Z,99240.80
2023-01-31T19:15:15.952Z,99234.80
2023-01-31T19:17:46.421Z,99232.60
2023-01-31T19:20:14.373Z,99225.80
2023-01-31T19:22:42.179Z,99201.20
2023-01-31T19:25:11.182Z,99209.60
2023-01-31T19:27:40.476Z,99203.60
2023-01-31T19:30:10.051Z,99197.60
2023-01-31T19:32:38.235Z,99198.40
2023-01-31T19:35:07.326Z,99194.60
2023-01-31T19:37:35.197Z,99184.00
2023-01-31T19:40:04.911Z,99182.00
2023-01-31T19:42:32.858Z,99170.20
2023-01-31T19:45:00.793Z,99158.60
2023-01-31T19:47:28.806Z,99163.00
2023-01-31T19:49:56.772Z,99149.60
2023-01-31T19:52:24.675Z,99138.20
2023-01-31T19:54:52.557Z,99127.40
2023-01-31T19:57:20.461Z,99129.20
2023-01-31T19:59:48.472Z,99120.40
2023-01-31T20:02:16.758Z,99108.00
2023-01-31T20:04:45.347Z,99105.80
2023-01-31T20:07:13.357Z,99093.00
2023-01-31T20:09:41.257Z,99095.00
2023-01-31T20:12:09.116Z,99100.40
2023-01-31T20:14:36.914Z,99095.00
2023-01-31T20:17:04.813Z,99077.00
2023-01-31T20:19:32.761Z,99078.00
2023-01-31T20:22:00.580Z,99058.00
2023-01-31T20:24:28.556Z,99066.80
2023-01-31T20:26:56.398Z,99060.60
2023-01-31T20:29:24.459Z,99044.00
2023-01-31T20:31:52.447Z,99033.40
2023-01-31T20:34:20.384Z,99035.80
2023-01-31T20:36:48.210Z,99040.40
2023-01-31T20:39:16.077Z,99043.20
2023-01-31T20:41:44.056Z,99043.60
2023-01-31T20:44:11.921Z,99045.60
2023-01-31T20:46:39.893Z,99036.40
2023-01-31T20:49:07.829Z,99035.60
2023-01-31T20:51:35.940Z,99040.60
2023-01-31T20:54:06.183Z,99039.40
2023-01-31T20:56:34.086Z,99040.00
2023-01-31T20:59:02.095Z,99052.20
2023-01-31T21:01:30.061Z,99057.80
2023-01-31T21:03:58.047Z,99060.20
2023-01-31T21:06:26.158Z,99053.60
2023-01-31T21:08:55.468Z,99050.60
2023-01-31T21:11:23.439Z,99046.20
2023-01-31T21:13:51.407Z,99051.40
2023-01-31T21:16:19.580Z,99048.80
2023-01-31T21:18:47.837Z,99041.20
2023-01-31T21:21:23.585Z,99048.20
2023-01-31T21:23:55.070Z,99049.40
2023-01-31T21:26:26.736Z,99049.00
2023-01-31T21:28:54.941Z,99041.60
2023-01-31T21:31:22.945Z,99042.00
2023-01-31T21:33:52.470Z,99030.20
2023-01-31T21:36:24.851Z,99050.20
2023-01-31T21:38:53.853Z,99042.00
2023-01-31T21:41:40.540Z,99035.20
2023-01-31T21:44:08.728Z,99044.00
2023-01-31T21:46:36.655Z,99049.80
2023-01-31T21:49:04.546Z,99036.60
2023-01-31T21:51:32.423Z,99036.80
2023-01-31T21:54:00.332Z,99041.80
2023-01-31T21:56:29.984Z,99054.20
2023-01-31T21:58:58.594Z,99038.20
2023-01-31T22:01:30.551Z,99034.60
2023-01-31T22:04:01.088Z,99029.00
2023-01-31T22:06:37.702Z,99029.20
2023-01-31T22:09:10.743Z,99027.80
2023-01-31T22:11:39.351Z,99022.40
2023-01-31T22:14:10.701Z,99032.40
2023-01-31T22:16:40.382Z,99015.40
2023-01-31T22:19:12.653Z,99022.60
2023-01-31T22:21:42.386Z,99028.00
2023-01-31T22:24:11.749Z,99028.80
2023-01-31T22:26:43.222Z,99029.00
2023-01-31T22:29:15.782Z,99021.60
2023-01-31T22:31:44.841Z,99032.20
2023-01-31T22:34:16.194Z,99027.60
2023-01-31T22:36:44.121Z,99030.80
2023-01-31T22:39:14.178Z,99025.60
2023-01-31T22:41:44.728Z,99022.40
2023-01-31T22:44:12.716Z,99025.20
2023-01-31T22:46:40.672Z,99028.80
2023-01-31T22:49:08.573Z,99027.60
2023-01-31T22:51:36.475Z,99034.00
2023-01-31T22:54:04.342Z,99045.80
2023-01-31T22:56:32.888Z,99029.20
2023-01-31T22:59:05.371Z,99043.80
2023-01-31T23:01:37.175Z,99046.00
2023-01-31T23:04:09.094Z,99037.00
2023-01-31T23:06:38.087Z,99034.60
2023-01-31T23:09:07.268Z,99029.20
2023-01-31T23:11:35.208Z,99030.60
2023-01-31T23:14:03.588Z,99022.60
2023-01-31T23:16:50.491Z,99029.60
2023-01-31T23:19:18.530Z,99028.00
2023-01-31T23:21:49.079Z,99040.80
2023-01-31T23:24:19.222Z,99046.20
2023-01-31T23:26:47.210Z,99042.60
2023-01-31T23:29:15.310Z,99040.00
2023-01-31T23:31:43.291Z,99037.80
2023-01-31T23:34:11.392Z,99034.80
2023-01-31T23:36:39.219Z,99030.40
2023-01-31T23:39:07.097Z,99037.80
2023-01-31T23:41:35.063Z,99048.60
2023-01-31T23:44:03.779Z,99054.60
2023-01-31T23:46:31.929Z,99056.00
2023-01-31T23:48:59.829Z,99046.80
2023-01-31T23:51:33.471Z,99041.60
2023-01-31T23:54:01.343Z,99035.20
2023-01-31T23:56:29.257Z,99039.60
2023-01-31T23:58:57.196Z,99037.00
